createdAt,value
2023-01-23T00:04:30.915Z,99447.00
2023-01-23T00:09:52.580Z,99443.00
2023-01-23T00:15:15.121Z,99442.00
2023-01-23T00:20:39.257Z,99453.00
2023-01-23T00:26:25.930Z,99443.00
2023-01-23T00:32:03.250Z,99450.00
2023-01-23T00:37:44.283Z,99447.00
2023-01-23T00:43:19.536Z,99458.00
2023-01-23T00:48:55.713Z,99476.00
2023-01-23T00:54:20.819Z,99474.00
2023-01-23T00:59:42.581Z,99464.00
2023-01-23T01:05:25.263Z,99473.00
2023-01-23T01:11:06.227Z,99486.00
2023-01-23T01:17:11.331Z,99493.00
2023-01-23T01:28:37.124Z,99515.00
2023-01-23T01:34:06.723Z,99524.00
2023-01-23T01:39:29.479Z,99516.00
2023-01-23T01:44:57.580Z,99520.00
2023-01-23T01:50:19.811Z,99538.00
2023-01-23T01:55:41.943Z,99536.00
2023-01-23T02:01:03.918Z,99545.00
2023-01-23T02:06:26.369Z,99552.00
2023-01-23T02:12:02.307Z,99553.00
2023-01-23T02:17:46.026Z,99548.00
2023-01-23T02:23:35.328Z,99546.00
2023-01-23T02:29:04.744Z,99555.00
2023-01-23T02:34:35.464Z,99540.00
2023-01-23T02:39:56.871Z,99549.00
2023-01-23T02:45:18.645Z,99549.00
2023-01-23T02:50:42.072Z,99550.00
2023-01-23T02:56:30.075Z,99541.00
2023-01-23T03:02:11.346Z,99557.00
2023-01-23T03:07:33.629Z,99549.00
2023-01-23T03:13:04.132Z,99548.00
2023-01-23T03:18:48.948Z,99542.00
2023-01-23T03:24:21.004Z,99527.00
2023-01-23T03:30:00.768Z,99528.00
2023-01-23T03:35:23.688Z,99530.00
2023-01-23T03:41:25.395Z,99537.00
2023-01-23T03:47:14.082Z,99539.00
2023-01-23T03:52:55.368Z,99539.00
2023-01-23T03:58:22.483Z,99552.00
2023-01-23T04:04:02.281Z,99545.00
2023-01-23T04:09:28.675Z,99546.00
2023-01-23T04:14:51.737Z,99557.00
2023-01-23T04:20:14.655Z,99572.00
2023-01-23T04:25:38.076Z,99570.00
2023-01-23T04:31:21.370Z,99586.00
2023-01-23T04:37:03.532Z,99587.00
2023-01-23T04:42:56.255Z,99587.00
2023-01-23T04:48:39.378Z,99594.00
2023-01-23T04:54:17.135Z,99601.00
2023-01-23T04:59:39.737Z,99599.00
2023-01-23T05:05:20.366Z,99604.00
2023-01-23T05:10:56.241Z,99596.00
2023-01-23T05:16:26.410Z,99601.00
2023-01-23T05:22:24.431Z,99617.00
2023-01-23T05:27:59.958Z,99620.00
2023-01-23T05:33:36.534Z,99622.00
2023-01-23T05:39:08.215Z,99623.00
2023-01-23T05:44:32.008Z,99634.00
2023-01-23T05:50:05.937Z,99625.00
2023-01-23T05:55:30.894Z,99628.00
2023-01-23T06:00:53.228Z,99633.00
2023-01-23T06:06:51.550Z,99653.00
2023-01-23T06:12:29.730Z,99653.00
2023-01-23T06:18:02.624Z,99661.00
2023-01-23T06:23:42.797Z,99659.00
2023-01-23T06:29:17.225Z,99666.00
2023-01-23T06:34:39.764Z,99661.00
2023-01-23T06:40:01.397Z,99661.00
2023-01-23T06:45:28.637Z,99674.00
2023-01-23T06:51:10.689Z,99686.00
2023-01-23T06:56:50.664Z,99698.00
2023-01-23T07:02:59.834Z,99692.00
2023-01-23T07:08:31.576Z,99700.00
2023-01-23T07:14:02.783Z,99718.00
2023-01-23T07:19:26.979Z,99728.00
2023-01-23T07:24:49.927Z,99730.00
2023-01-23T07:30:12.194Z,99740.00
2023-01-23T07:35:33.822Z,99741.00
2023-01-23T07:41:03.142Z,99758.00
2023-01-23T07:46:34.692Z,99766.00
2023-01-23T07:52:18.340Z,99768.00
2023-01-23T07:57:58.288Z,99778.00
2023-01-23T08:03:34.683Z,99788.00
2023-01-23T08:08:59.074Z,99772.00
2023-01-23T08:14:21.101Z,99773.00
2023-01-23T08:19:42.259Z,99779.00
2023-01-23T08:25:03.670Z,99777.00
2023-01-23T08:31:26.140Z,99785.00
2023-01-23T08:37:04.975Z,99788.00
2023-01-23T08:42:38.714Z,99794.00
2023-01-23T08:48:07.516Z,99793.00
2023-01-23T08:59:16.678Z,99797.00
2023-01-23T09:04:53.606Z,99812.00
2023-01-23T09:10:16.235Z,99803.00
2023-01-23T09:15:41.531Z,99806.00
2023-01-23T09:21:32.883Z,99807.00
2023-01-23T09:32:57.043Z,99810.00
2023-01-23T09:38:32.292Z,99808.00
2023-01-23T09:44:40.768Z,99810.00
2023-01-23T09:50:09.053Z,99806.00
2023-01-23T09:56:20.243Z,99806.00
2023-01-23T10:02:14.079Z,99794.00
2023-01-23T10:07:50.757Z,99788.00
2023-01-23T10:13:56.178Z,99798.00
2023-01-23T10:19:43.088Z,99789.00
2023-01-23T10:25:22.982Z,99796.00
2023-01-23T10:31:13.127Z,99787.00
2023-01-23T10:37:13.220Z,99789.00
2023-01-23T10:42:54.279Z,99801.00
2023-01-23T10:48:37.043Z,99786.00
2023-01-23T10:54:30.885Z,99800.00
2023-01-23T10:59:56.946Z,99790.00
2023-01-23T11:05:52.848Z,99797.00
2023-01-23T11:11:29.957Z,99792.00
2023-01-23T11:17:32.138Z,99792.00
2023-01-23T11:23:45.206Z,99779.00
2023-01-23T11:29:29.635Z,99785.00
2023-01-23T11:34:57.439Z,99788.00
2023-01-23T11:40:20.780Z,99774.00
2023-01-23T11:52:39.507Z,99766.00
2023-01-23T11:58:49.848Z,99774.00
2023-01-23T12:04:54.353Z,99771.00
2023-01-23T12:10:27.018Z,99772.00
2023-01-23T12:16:40.389Z,99770.00
2023-01-23T12:22:10.501Z,99773.00
2023-01-23T12:27:58.029Z,99751.00
2023-01-23T12:33:52.100Z,99778.00
2023-01-23T12:39:38.317Z,99775.00
2023-01-23T12:45:05.363Z,99764.00
2023-01-23T12:50:40.703Z,99762.00
2023-01-23T12:56:28.037Z,99772.00
2023-01-23T13:02:29.496Z,99770.00
2023-01-23T13:08:01.844Z,99778.00
2023-01-23T13:13:24.262Z,99775.00
2023-01-23T13:19:22.905Z,99778.00
2023-01-23T13:25:09.559Z,99780.00
2023-01-23T13:30:35.352Z,99788.00
2023-01-23T13:36:29.879Z,99788.00
2023-01-23T13:42:20.760Z,99771.00
2023-01-23T14:23:50.283Z,99780.00
2023-01-23T14:29:26.761Z,99779.00
2023-01-23T14:34:48.145Z,99775.00
2023-01-23T14:40:26.462Z,99779.00
2023-01-23T14:46:27.879Z,99784.00
2023-01-23T14:52:36.336Z,99785.00
2023-01-23T14:58:00.006Z,99781.00
2023-01-23T15:09:41.660Z,99768.00
2023-01-23T15:15:03.172Z,99768.00
2023-01-23T15:20:30.354Z,99768.00
2023-01-23T15:26:34.567Z,99783.00
2023-01-23T15:32:48.273Z,99775.00
2023-01-23T15:38:33.604Z,99770.00
2023-01-23T15:44:05.316Z,99790.00
2023-01-23T15:49:28.578Z,99784.00
2023-01-23T15:54:54.108Z,99790.00
2023-01-23T16:00:20.056Z,99793.00
2023-01-23T16:06:19.637Z,99797.00
2023-01-23T16:17:46.991Z,99804.00
2023-01-23T16:23:46.131Z,99803.00
2023-01-23T16:29:28.270Z,99799.00
2023-01-23T16:34:50.073Z,99809.00
2023-01-23T16:40:27.329Z,99820.00
2023-01-23T16:46:01.316Z,99831.00
2023-01-23T16:52:00.835Z,99828.00
2023-01-23T16:57:58.458Z,99839.00
2023-01-23T17:03:29.816Z,99837.00
2023-01-23T17:09:05.367Z,99855.00
2023-01-23T17:14:31.344Z,99851.00
2023-01-23T17:19:52.948Z,99843.00
2023-01-23T17:25:23.342Z,99862.00
2023-01-23T17:31:07.648Z,99851.00
2023-01-23T17:37:06.563Z,99869.00
2023-01-23T17:42:47.073Z,99865.00
2023-01-23T17:48:43.981Z,99864.00
2023-01-23T17:54:17.230Z,99863.00
2023-01-23T17:59:38.846Z,99864.00
2023-01-23T18:05:21.047Z,99866.00
2023-01-23T18:11:26.347Z,99862.00
2023-01-23T18:17:36.957Z,99859.00
2023-01-23T18:23:16.965Z,99864.00
2023-01-23T18:29:15.807Z,99859.00
2023-01-23T18:35:04.557Z,99866.00
2023-01-23T18:41:21.403Z,99858.00
2023-01-23T18:47:16.826Z,99870.00
2023-01-23T18:53:23.634Z,99873.00
2023-01-23T18:59:12.089Z,99866.00
2023-01-23T19:05:03.161Z,99864.00
2023-01-23T19:10:32.562Z,99864.00
2023-01-23T19:16:21.676Z,99869.00
2023-01-23T19:22:05.798Z,99867.00
2023-01-23T19:27:49.904Z,99872.00
2023-01-23T19:33:37.300Z,99876.00
2023-01-23T19:39:08.395Z,99884.00
2023-01-23T19:44:30.973Z,99872.00
2023-01-23T19:49:52.164Z,99879.00
2023-01-23T19:55:28.028Z,99884.00
2023-01-23T20:00:49.496Z,99878.00
2023-01-23T20:06:34.863Z,99883.00
2023-01-23T20:12:02.193Z,99896.00
2023-01-23T20:17:49.933Z,99895.00
2023-01-23T20:23:14.097Z,99891.00
2023-01-23T20:28:45.298Z,99889.00
2023-01-23T20:34:11.337Z,99894.00
2023-01-23T20:39:32.814Z,99884.00
2023-01-23T20:44:54.348Z,99883.00
2023-01-23T20:50:16.169Z,99885.00
2023-01-23T20:55:37.854Z,99892.00
2023-01-23T21:00:59.391Z,99882.00
2023-01-23T21:06:36.471Z,99885.00
2023-01-23T21:12:15.325Z,99878.00
2023-01-23T21:17:54.317Z,99866.00
2023-01-23T21:23:35.418Z,99880.00
2023-01-23T21:29:08.106Z,99880.00
2023-01-23T21:34:31.372Z,99887.00
2023-01-23T21:39:52.745Z,99892.00
2023-01-23T21:45:14.275Z,99891.00
2023-01-23T21:50:35.784Z,99900.00
2023-01-23T21:56:22.538Z,99904.00
2023-01-23T22:02:07.670Z,99892.00
2023-01-23T22:07:32.295Z,99893.00
2023-01-23T22:12:59.663Z,99909.00
2023-01-23T22:18:21.091Z,99899.00
2023-01-23T22:23:51.195Z,99891.00
2023-01-23T22:29:15.013Z,99899.00
2023-01-23T22:34:36.596Z,99905.00
2023-01-23T22:39:58.032Z,99898.00
2023-01-23T22:45:20.055Z,99901.00
2023-01-23T22:50:41.818Z,99903.00
2023-01-23T22:56:27.500Z,99910.00
2023-01-23T23:02:08.537Z,99899.00
2023-01-23T23:07:44.774Z,99887.00
2023-01-23T23:13:19.916Z,99890.00
2023-01-23T23:18:52.803Z,99893.00
2023-01-23T23:24:14.867Z,99887.00
2023-01-23T23:29:36.299Z,99890.00
2023-01-23T23:35:01.679Z,99892.00
2023-01-23T23:40:23.640Z,99888.00
2023-01-23T23:46:26.576Z,99902.00
2023-01-23T23:52:06.818Z,99900.00
2023-01-23T23:57:51.718Z,99890.00
